sensor_id;sensor_type;location;lat;lon;timestamp;P1;durP1;ratioP1;P2;durP2;ratioP2
59770;SDS011;45649;53.014;6.600;2023-01-05T00:01:33;15.57;;;4.23;;
59770;SDS011;45649;53.014;6.600;2023-01-05T00:03:59;32.33;;;19.40;;
59770;SDS011;45649;53.014;6.600;2023-01-05T00:06:25;19.17;;;5.30;;
59770;SDS011;45649;53.014;6.600;2023-01-05T00:08:52;18.83;;;4.30;;
59770;SDS011;45649;53.014;6.600;2023-01-05T00:11:22;17.00;;;4.40;;
59770;SDS011;45649;53.014;6.600;2023-01-05T00:14:11;18.17;;;3.97;;
59770;SDS011;45649;53.014;6.600;2023-01-05T00:16:56;22.03;;;4.13;;
59770;SDS011;45649;53.014;6.600;2023-01-05T00:19:40;23.63;;;4.32;;
59770;SDS011;45649;53.014;6.600;2023-01-05T00:22:26;17.37;;;4.30;;
59770;SDS011;45649;53.014;6.600;2023-01-05T00:25:30;19.77;;;4.63;;
59770;SDS011;45649;53.014;6.600;2023-01-05T00:27:48;24.03;;;4.70;;
59770;SDS011;45649;53.014;6.600;2023-01-05T00:30:16;22.87;;;4.50;;
59770;SDS011;45649;53.014;6.600;2023-01-05T00:32:43;23.63;;;4.63;;
59770;SDS011;45649;53.014;6.600;2023-01-05T00:35:09;25.53;;;4.80;;
59770;SDS011;45649;53.014;6.600;2023-01-05T00:37:36;25.40;;;5.20;;
59770;SDS011;45649;53.014;6.600;2023-01-05T00:40:03;24.43;;;4.77;;
59770;SDS011;45649;53.014;6.600;2023-01-05T00:42:29;19.87;;;4.00;;
59770;SDS011;45649;53.014;6.600;2023-01-05T00:44:56;18.50;;;4.20;;
59770;SDS011;45649;53.014;6.600;2023-01-05T00:47:22;21.83;;;4.60;;
59770;SDS011;45649;53.014;6.600;2023-01-05T00:49:48;22.70;;;4.40;;
59770;SDS011;45649;53.014;6.600;2023-01-05T00:52:14;24.80;;;4.27;;
59770;SDS011;45649;53.014;6.600;2023-01-05T00:54:40;22.07;;;4.47;;
59770;SDS011;45649;53.014;6.600;2023-01-05T00:57:08;20.80;;;4.07;;
59770;SDS011;45649;53.014;6.600;2023-01-05T00:59:35;24.57;;;5.00;;
59770;SDS011;45649;53.014;6.600;2023-01-05T01:02:01;20.90;;;4.20;;
59770;SDS011;45649;53.014;6.600;2023-01-05T01:04:29;19.43;;;4.50;;
59770;SDS011;45649;53.014;6.600;2023-01-05T01:06:55;27.30;;;4.83;;
59770;SDS011;45649;53.014;6.600;2023-01-05T01:09:21;18.40;;;3.97;;
59770;SDS011;45649;53.014;6.600;2023-01-05T01:11:47;21.03;;;4.47;;
59770;SDS011;45649;53.014;6.600;2023-01-05T01:14:14;20.27;;;5.13;;
59770;SDS011;45649;53.014;6.600;2023-01-05T01:16:40;24.20;;;4.30;;
59770;SDS011;45649;53.014;6.600;2023-01-05T01:19:07;14.77;;;3.80;;
59770;SDS011;45649;53.014;6.600;2023-01-05T01:21:33;21.50;;;4.20;;
59770;SDS011;45649;53.014;6.600;2023-01-05T01:24:00;20.63;;;4.40;;
59770;SDS011;45649;53.014;6.600;2023-01-05T01:26:26;18.90;;;4.07;;
59770;SDS011;45649;53.014;6.600;2023-01-05T01:28:52;19.30;;;4.80;;
59770;SDS011;45649;53.014;6.600;2023-01-05T01:31:18;20.77;;;4.30;;
59770;SDS011;45649;53.014;6.600;2023-01-05T01:33:44;22.10;;;4.83;;
59770;SDS011;45649;53.014;6.600;2023-01-05T01:36:10;19.30;;;4.13;;
59770;SDS011;45649;53.014;6.600;2023-01-05T01:38:37;19.07;;;4.47;;
59770;SDS011;45649;53.014;6.600;2023-01-05T01:41:03;31.57;;;5.00;;
59770;SDS011;45649;53.014;6.600;2023-01-05T01:46:05;20.50;;;4.70;;
59770;SDS011;45649;53.014;6.600;2023-01-05T01:48:31;21.13;;;4.70;;
59770;SDS011;45649;53.014;6.600;2023-01-05T01:50:57;22.90;;;4.53;;
59770;SDS011;45649;53.014;6.600;2023-01-05T01:53:28;24.63;;;4.40;;
59770;SDS011;45649;53.014;6.600;2023-01-05T01:55:54;19.70;;;4.20;;
59770;SDS011;45649;53.014;6.600;2023-01-05T01:58:23;21.03;;;4.70;;
59770;SDS011;45649;53.014;6.600;2023-01-05T02:00:50;26.37;;;5.03;;
59770;SDS011;45649;53.014;6.600;2023-01-05T02:03:17;22.10;;;4.70;;
59770;SDS011;45649;53.014;6.600;2023-01-05T02:05:43;21.53;;;4.93;;
59770;SDS011;45649;53.014;6.600;2023-01-05T02:08:10;19.00;;;4.60;;
59770;SDS011;45649;53.014;6.600;2023-01-05T02:10:54;25.67;;;5.27;;
59770;SDS011;45649;53.014;6.600;2023-01-05T02:16:10;26.33;;;4.70;;
59770;SDS011;45649;53.014;6.600;2023-01-05T02:21:45;17.83;;;4.33;;
59770;SDS011;45649;53.014;6.600;2023-01-05T02:27:09;22.73;;;4.93;;
59770;SDS011;45649;53.014;6.600;2023-01-05T02:32:28;19.20;;;4.77;;
59770;SDS011;45649;53.014;6.600;2023-01-05T02:37:40;23.10;;;5.10;;
59770;SDS011;45649;53.014;6.600;2023-01-05T02:40:14;21.13;;;4.53;;
59770;SDS011;45649;53.014;6.600;2023-01-05T02:42:44;23.47;;;4.17;;
59770;SDS011;45649;53.014;6.600;2023-01-05T02:45:11;22.37;;;4.80;;
59770;SDS011;45649;53.014;6.600;2023-01-05T02:47:41;20.67;;;4.57;;
59770;SDS011;45649;53.014;6.600;2023-01-05T02:50:15;21.30;;;4.63;;
59770;SDS011;45649;53.014;6.600;2023-01-05T02:55:15;22.53;;;4.60;;
59770;SDS011;45649;53.014;6.600;2023-01-05T02:57:45;20.50;;;4.30;;
59770;SDS011;45649;53.014;6.600;2023-01-05T03:00:19;20.10;;;5.00;;
59770;SDS011;45649;53.014;6.600;2023-01-05T03:05:42;22.83;;;4.63;;
59770;SDS011;45649;53.014;6.600;2023-01-05T03:08:09;20.00;;;4.53;;
59770;SDS011;45649;53.014;6.600;2023-01-05T03:11:08;20.73;;;4.80;;
59770;SDS011;45649;53.014;6.600;2023-01-05T03:14:12;22.37;;;4.23;;
59770;SDS011;45649;53.014;6.600;2023-01-05T03:16:40;23.20;;;4.50;;
59770;SDS011;45649;53.014;6.600;2023-01-05T03:19:10;23.93;;;4.67;;
59770;SDS011;45649;53.014;6.600;2023-01-05T03:21:56;21.67;;;4.97;;
59770;SDS011;45649;53.014;6.600;2023-01-05T03:24:41;18.93;;;4.50;;
59770;SDS011;45649;53.014;6.600;2023-01-05T03:27:27;21.60;;;4.87;;
59770;SDS011;45649;53.014;6.600;2023-01-05T03:30:12;19.13;;;4.90;;
59770;SDS011;45649;53.014;6.600;2023-01-05T03:33:03;23.00;;;4.47;;
59770;SDS011;45649;53.014;6.600;2023-01-05T03:35:52;26.67;;;5.50;;
59770;SDS011;45649;53.014;6.600;2023-01-05T03:38:37;19.63;;;4.20;;
59770;SDS011;45649;53.014;6.600;2023-01-05T03:41:06;22.53;;;4.80;;
59770;SDS011;45649;53.014;6.600;2023-01-05T03:43:37;27.90;;;5.40;;
59770;SDS011;45649;53.014;6.600;2023-01-05T03:46:10;24.67;;;4.37;;
59770;SDS011;45649;53.014;6.600;2023-01-05T03:48:38;20.93;;;4.40;;
59770;SDS011;45649;53.014;6.600;2023-01-05T03:51:04;20.47;;;4.60;;
59770;SDS011;45649;53.014;6.600;2023-01-05T03:53:31;25.13;;;4.77;;
59770;SDS011;45649;53.014;6.600;2023-01-05T03:55:57;22.27;;;4.77;;
59770;SDS011;45649;53.014;6.600;2023-01-05T03:58:25;27.30;;;5.47;;
59770;SDS011;45649;53.014;6.600;2023-01-05T04:00:52;19.60;;;4.50;;
59770;SDS011;45649;53.014;6.600;2023-01-05T04:03:18;30.07;;;5.50;;
59770;SDS011;45649;53.014;6.600;2023-01-05T04:05:44;24.20;;;4.83;;
59770;SDS011;45649;53.014;6.600;2023-01-05T04:08:11;25.43;;;4.90;;
59770;SDS011;45649;53.014;6.600;2023-01-05T04:10:37;27.33;;;5.10;;
59770;SDS011;45649;53.014;6.600;2023-01-05T04:13:03;30.17;;;5.33;;
59770;SDS011;45649;53.014;6.600;2023-01-05T04:15:29;24.40;;;4.90;;
59770;SDS011;45649;53.014;6.600;2023-01-05T04:17:56;23.70;;;5.30;;
59770;SDS011;45649;53.014;6.600;2023-01-05T04:20:22;25.90;;;5.13;;
59770;SDS011;45649;53.014;6.600;2023-01-05T04:22:48;21.23;;;4.53;;
59770;SDS011;45649;53.014;6.600;2023-01-05T04:25:14;25.40;;;5.33;;
59770;SDS011;45649;53.014;6.600;2023-01-05T04:27:41;24.37;;;5.40;;
59770;SDS011;45649;53.014;6.600;2023-01-05T04:30:07;21.90;;;5.27;;
59770;SDS011;45649;53.014;6.600;2023-01-05T04:32:36;27.10;;;5.07;;
59770;SDS011;45649;53.014;6.600;2023-01-05T04:35:02;28.27;;;5.23;;
59770;SDS011;45649;53.014;6.600;2023-01-05T04:37:28;25.03;;;4.77;;
59770;SDS011;45649;53.014;6.600;2023-01-05T04:39:55;28.00;;;5.00;;
59770;SDS011;45649;53.014;6.600;2023-01-05T04:42:21;26.20;;;5.00;;
59770;SDS011;45649;53.014;6.600;2023-01-05T04:44:47;20.13;;;4.40;;
59770;SDS011;45649;53.014;6.600;2023-01-05T04:47:13;29.63;;;5.17;;
59770;SDS011;45649;53.014;6.600;2023-01-05T04:49:39;24.03;;;4.90;;
59770;SDS011;45649;53.014;6.600;2023-01-05T04:52:06;20.77;;;4.83;;
59770;SDS011;45649;53.014;6.600;2023-01-05T04:54:32;21.57;;;4.80;;
59770;SDS011;45649;53.014;6.600;2023-01-05T04:56:59;23.20;;;4.80;;
59770;SDS011;45649;53.014;6.600;2023-01-05T04:59:25;21.47;;;4.37;;
59770;SDS011;45649;53.014;6.600;2023-01-05T05:01:51;18.63;;;3.93;;
59770;SDS011;45649;53.014;6.600;2023-01-05T05:04:17;16.83;;;3.97;;
59770;SDS011;45649;53.014;6.600;2023-01-05T05:06:43;20.07;;;4.37;;
59770;SDS011;45649;53.014;6.600;2023-01-05T05:09:10;17.27;;;3.83;;
59770;SDS011;45649;53.014;6.600;2023-01-05T05:11:36;16.57;;;3.90;;
59770;SDS011;45649;53.014;6.600;2023-01-05T05:14:02;19.90;;;3.90;;
59770;SDS011;45649;53.014;6.600;2023-01-05T05:16:28;22.87;;;4.40;;
59770;SDS011;45649;53.014;6.600;2023-01-05T05:18:55;24.50;;;4.93;;
59770;SDS011;45649;53.014;6.600;2023-01-05T05:21:21;19.63;;;4.03;;
59770;SDS011;45649;53.014;6.600;2023-01-05T05:23:47;21.53;;;4.80;;
59770;SDS011;45649;53.014;6.600;2023-01-05T05:26:14;15.70;;;4.00;;
59770;SDS011;45649;53.014;6.600;2023-01-05T05:28:40;17.03;;;3.90;;
59770;SDS011;45649;53.014;6.600;2023-01-05T05:31:06;24.43;;;4.90;;
59770;SDS011;45649;53.014;6.600;2023-01-05T05:33:32;21.05;;;4.80;;
59770;SDS011;45649;53.014;6.600;2023-01-05T05:35:58;22.80;;;4.87;;
59770;SDS011;45649;53.014;6.600;2023-01-05T05:38:25;21.00;;;4.03;;
59770;SDS011;45649;53.014;6.600;2023-01-05T05:40:51;25.10;;;4.43;;
59770;SDS011;45649;53.014;6.600;2023-01-05T05:43:17;23.60;;;4.60;;
59770;SDS011;45649;53.014;6.600;2023-01-05T05:45:44;20.23;;;4.20;;
59770;SDS011;45649;53.014;6.600;2023-01-05T05:48:10;20.30;;;4.37;;
59770;SDS011;45649;53.014;6.600;2023-01-05T05:50:36;21.30;;;4.67;;
59770;SDS011;45649;53.014;6.600;2023-01-05T05:53:03;21.67;;;4.23;;
59770;SDS011;45649;53.014;6.600;2023-01-05T05:55:29;18.30;;;4.43;;
59770;SDS011;45649;53.014;6.600;2023-01-05T05:57:55;21.97;;;4.63;;
59770;SDS011;45649;53.014;6.600;2023-01-05T06:00:21;22.30;;;4.33;;
59770;SDS011;45649;53.014;6.600;2023-01-05T06:02:48;22.30;;;4.50;;
59770;SDS011;45649;53.014;6.600;2023-01-05T06:05:14;19.80;;;3.97;;
59770;SDS011;45649;53.014;6.600;2023-01-05T06:07:40;16.87;;;4.13;;
59770;SDS011;45649;53.014;6.600;2023-01-05T06:10:07;21.13;;;4.50;;
59770;SDS011;45649;53.014;6.600;2023-01-05T06:12:34;17.63;;;4.40;;
59770;SDS011;45649;53.014;6.600;2023-01-05T06:15:00;19.87;;;4.37;;
59770;SDS011;45649;53.014;6.600;2023-01-05T06:17:27;20.80;;;4.60;;
59770;SDS011;45649;53.014;6.600;2023-01-05T06:19:53;19.10;;;3.90;;
59770;SDS011;45649;53.014;6.600;2023-01-05T06:22:19;20.70;;;4.23;;
59770;SDS011;45649;53.014;6.600;2023-01-05T06:24:46;15.70;;;3.73;;
59770;SDS011;45649;53.014;6.600;2023-01-05T06:27:12;19.47;;;4.47;;
59770;SDS011;45649;53.014;6.600;2023-01-05T06:29:38;20.47;;;4.63;;
59770;SDS011;45649;53.014;6.600;2023-01-05T06:32:04;20.70;;;4.50;;
59770;SDS011;45649;53.014;6.600;2023-01-05T06:34:30;22.60;;;4.47;;
59770;SDS011;45649;53.014;6.600;2023-01-05T06:36:56;14.13;;;4.00;;
59770;SDS011;45649;53.014;6.600;2023-01-05T06:39:23;22.10;;;4.30;;
59770;SDS011;45649;53.014;6.600;2023-01-05T06:41:50;17.07;;;4.07;;
59770;SDS011;45649;53.014;6.600;2023-01-05T06:44:16;18.17;;;4.37;;
59770;SDS011;45649;53.014;6.600;2023-01-05T06:46:42;21.90;;;4.87;;
59770;SDS011;45649;53.014;6.600;2023-01-05T06:49:09;19.97;;;4.80;;
59770;SDS011;45649;53.014;6.600;2023-01-05T06:51:36;26.03;;;4.60;;
59770;SDS011;45649;53.014;6.600;2023-01-05T06:54:04;22.50;;;4.80;;
59770;SDS011;45649;53.014;6.600;2023-01-05T06:56:30;24.20;;;4.37;;
59770;SDS011;45649;53.014;6.600;2023-01-05T06:58:56;24.50;;;4.67;;
59770;SDS011;45649;53.014;6.600;2023-01-05T07:01:23;15.90;;;3.70;;
59770;SDS011;45649;53.014;6.600;2023-01-05T07:03:49;17.00;;;4.40;;
59770;SDS011;45649;53.014;6.600;2023-01-05T07:06:15;18.40;;;4.57;;
59770;SDS011;45649;53.014;6.600;2023-01-05T07:08:41;15.87;;;4.20;;
59770;SDS011;45649;53.014;6.600;2023-01-05T07:11:08;21.70;;;4.27;;
59770;SDS011;45649;53.014;6.600;2023-01-05T07:13:34;19.77;;;4.50;;
59770;SDS011;45649;53.014;6.600;2023-01-05T07:16:01;15.73;;;3.67;;
59770;SDS011;45649;53.014;6.600;2023-01-05T07:18:27;20.03;;;3.77;;
59770;SDS011;45649;53.014;6.600;2023-01-05T07:20:53;16.40;;;3.60;;
59770;SDS011;45649;53.014;6.600;2023-01-05T07:23:19;18.67;;;4.20;;
59770;SDS011;45649;53.014;6.600;2023-01-05T07:25:46;19.67;;;3.90;;
59770;SDS011;45649;53.014;6.600;2023-01-05T07:28:12;20.40;;;4.33;;
59770;SDS011;45649;53.014;6.600;2023-01-05T07:30:38;17.20;;;4.37;;
59770;SDS011;45649;53.014;6.600;2023-01-05T07:33:04;19.77;;;4.23;;
59770;SDS011;45649;53.014;6.600;2023-01-05T07:35:31;19.27;;;3.97;;
59770;SDS011;45649;53.014;6.600;2023-01-05T07:37:57;19.73;;;4.23;;
59770;SDS011;45649;53.014;6.600;2023-01-05T07:40:23;20.20;;;4.07;;
59770;SDS011;45649;53.014;6.600;2023-01-05T07:42:50;16.70;;;3.80;;
59770;SDS011;45649;53.014;6.600;2023-01-05T07:45:16;21.43;;;4.20;;
59770;SDS011;45649;53.014;6.600;2023-01-05T07:47:43;18.07;;;3.53;;
59770;SDS011;45649;53.014;6.600;2023-01-05T07:50:09;23.23;;;3.93;;
59770;SDS011;45649;53.014;6.600;2023-01-05T07:52:35;17.53;;;3.90;;
59770;SDS011;45649;53.014;6.600;2023-01-05T07:55:03;15.30;;;3.70;;
59770;SDS011;45649;53.014;6.600;2023-01-05T07:57:29;14.17;;;3.73;;
59770;SDS011;45649;53.014;6.600;2023-01-05T07:59:55;18.47;;;4.20;;
59770;SDS011;45649;53.014;6.600;2023-01-05T08:02:21;21.13;;;3.97;;
59770;SDS011;45649;53.014;6.600;2023-01-05T08:04:47;17.97;;;3.93;;
59770;SDS011;45649;53.014;6.600;2023-01-05T08:07:14;18.37;;;3.77;;
59770;SDS011;45649;53.014;6.600;2023-01-05T08:09:40;20.57;;;4.47;;
59770;SDS011;45649;53.014;6.600;2023-01-05T08:12:26;17.77;;;4.07;;
59770;SDS011;45649;53.014;6.600;2023-01-05T08:14:53;17.30;;;3.60;;
59770;SDS011;45649;53.014;6.600;2023-01-05T08:17:19;20.00;;;4.37;;
59770;SDS011;45649;53.014;6.600;2023-01-05T08:19:45;17.80;;;4.17;;
59770;SDS011;45649;53.014;6.600;2023-01-05T08:22:11;12.43;;;3.67;;
59770;SDS011;45649;53.014;6.600;2023-01-05T08:24:37;20.30;;;3.90;;
59770;SDS011;45649;53.014;6.600;2023-01-05T08:27:03;22.10;;;3.80;;
59770;SDS011;45649;53.014;6.600;2023-01-05T08:29:29;16.00;;;4.17;;
59770;SDS011;45649;53.014;6.600;2023-01-05T08:31:55;19.83;;;3.93;;
59770;SDS011;45649;53.014;6.600;2023-01-05T08:34:22;17.07;;;3.57;;
59770;SDS011;45649;53.014;6.600;2023-01-05T08:36:48;17.83;;;3.77;;
59770;SDS011;45649;53.014;6.600;2023-01-05T08:39:14;17.33;;;4.10;;
59770;SDS011;45649;53.014;6.600;2023-01-05T08:41:40;15.87;;;3.63;;
59770;SDS011;45649;53.014;6.600;2023-01-05T08:44:08;14.33;;;3.17;;
59770;SDS011;45649;53.014;6.600;2023-01-05T08:46:35;16.63;;;4.20;;
59770;SDS011;45649;53.014;6.600;2023-01-05T08:49:03;15.93;;;3.67;;
59770;SDS011;45649;53.014;6.600;2023-01-05T08:51:30;20.87;;;3.80;;
59770;SDS011;45649;53.014;6.600;2023-01-05T08:53:56;20.07;;;3.80;;
59770;SDS011;45649;53.014;6.600;2023-01-05T08:56:22;15.40;;;3.30;;
59770;SDS011;45649;53.014;6.600;2023-01-05T08:58:49;17.60;;;3.90;;
59770;SDS011;45649;53.014;6.600;2023-01-05T09:01:17;16.03;;;3.37;;
59770;SDS011;45649;53.014;6.600;2023-01-05T09:03:45;15.77;;;3.53;;
59770;SDS011;45649;53.014;6.600;2023-01-05T09:06:12;12.37;;;3.53;;
59770;SDS011;45649;53.014;6.600;2023-01-05T09:08:39;17.43;;;3.57;;
59770;SDS011;45649;53.014;6.600;2023-01-05T09:11:25;17.80;;;4.13;;
59770;SDS011;45649;53.014;6.600;2023-01-05T09:13:55;16.67;;;3.97;;
59770;SDS011;45649;53.014;6.600;2023-01-05T09:16:22;17.10;;;3.37;;
59770;SDS011;45649;53.014;6.600;2023-01-05T09:18:49;16.07;;;3.50;;
59770;SDS011;45649;53.014;6.600;2023-01-05T09:21:15;22.47;;;3.87;;
59770;SDS011;45649;53.014;6.600;2023-01-05T09:23:42;13.20;;;3.50;;
59770;SDS011;45649;53.014;6.600;2023-01-05T09:26:11;17.47;;;4.00;;
59770;SDS011;45649;53.014;6.600;2023-01-05T09:28:39;18.40;;;3.67;;
59770;SDS011;45649;53.014;6.600;2023-01-05T09:31:08;17.52;;;4.10;;
59770;SDS011;45649;53.014;6.600;2023-01-05T09:33:35;15.30;;;3.63;;
59770;SDS011;45649;53.014;6.600;2023-01-05T09:36:02;21.70;;;4.40;;
59770;SDS011;45649;53.014;6.600;2023-01-05T09:38:28;13.97;;;3.53;;
59770;SDS011;45649;53.014;6.600;2023-01-05T09:40:54;17.30;;;3.23;;
59770;SDS011;45649;53.014;6.600;2023-01-05T09:43:27;18.20;;;4.00;;
59770;SDS011;45649;53.014;6.600;2023-01-05T09:45:54;14.50;;;3.63;;
59770;SDS011;45649;53.014;6.600;2023-01-05T09:48:21;16.90;;;4.10;;
59770;SDS011;45649;53.014;6.600;2023-01-05T09:50:52;15.87;;;3.47;;
59770;SDS011;45649;53.014;6.600;2023-01-05T09:53:21;18.83;;;3.80;;
59770;SDS011;45649;53.014;6.600;2023-01-05T09:55:50;14.63;;;3.47;;
59770;SDS011;45649;53.014;6.600;2023-01-05T09:58:18;19.47;;;3.87;;
59770;SDS011;45649;53.014;6.600;2023-01-05T10:00:56;18.43;;;3.60;;
59770;SDS011;45649;53.014;6.600;2023-01-05T10:03:28;19.60;;;4.23;;
59770;SDS011;45649;53.014;6.600;2023-01-05T10:05:56;16.13;;;4.40;;
59770;SDS011;45649;53.014;6.600;2023-01-05T10:08:33;14.33;;;3.60;;
59770;SDS011;45649;53.014;6.600;2023-01-05T10:11:02;16.87;;;3.77;;
59770;SDS011;45649;53.014;6.600;2023-01-05T10:14:22;16.27;;;3.43;;
59770;SDS011;45649;53.014;6.600;2023-01-05T10:16:41;18.83;;;3.80;;
59770;SDS011;45649;53.014;6.600;2023-01-05T10:19:17;12.73;;;3.43;;
59770;SDS011;45649;53.014;6.600;2023-01-05T10:29:23;14.77;;;3.70;;
59770;SDS011;45649;53.014;6.600;2023-01-05T10:32:01;15.23;;;3.33;;
59770;SDS011;45649;53.014;6.600;2023-01-05T10:34:34;15.20;;;3.27;;
59770;SDS011;45649;53.014;6.600;2023-01-05T10:37:12;17.03;;;4.00;;
59770;SDS011;45649;53.014;6.600;2023-01-05T10:45:24;19.73;;;3.57;;
59770;SDS011;45649;53.014;6.600;2023-01-05T10:47:52;16.97;;;3.63;;
59770;SDS011;45649;53.014;6.600;2023-01-05T10:50:29;16.13;;;3.30;;
59770;SDS011;45649;53.014;6.600;2023-01-05T10:52:56;16.30;;;3.53;;
59770;SDS011;45649;53.014;6.600;2023-01-05T10:55:23;15.37;;;3.40;;
59770;SDS011;45649;53.014;6.600;2023-01-05T10:57:49;15.20;;;3.57;;
59770;SDS011;45649;53.014;6.600;2023-01-05T11:00:17;20.10;;;3.53;;
59770;SDS011;45649;53.014;6.600;2023-01-05T11:02:48;21.50;;;4.60;;
59770;SDS011;45649;53.014;6.600;2023-01-05T11:07:48;16.77;;;4.17;;
59770;SDS011;45649;53.014;6.600;2023-01-05T11:12:54;13.93;;;3.90;;
59770;SDS011;45649;53.014;6.600;2023-01-05T11:15:22;13.60;;;3.73;;
59770;SDS011;45649;53.014;6.600;2023-01-05T11:17:51;11.47;;;3.37;;
59770;SDS011;45649;53.014;6.600;2023-01-05T11:20:17;14.87;;;3.83;;
59770;SDS011;45649;53.014;6.600;2023-01-05T11:22:44;12.53;;;2.90;;
59770;SDS011;45649;53.014;6.600;2023-01-05T11:25:13;10.40;;;2.67;;
59770;SDS011;45649;53.014;6.600;2023-01-05T11:27:40;10.13;;;2.40;;
59770;SDS011;45649;53.014;6.600;2023-01-05T11:32:41;8.10;;;2.20;;
59770;SDS011;45649;53.014;6.600;2023-01-05T11:35:30;8.10;;;2.60;;
59770;SDS011;45649;53.014;6.600;2023-01-05T11:37:57;7.43;;;2.50;;
59770;SDS011;45649;53.014;6.600;2023-01-05T11:40:26;7.60;;;2.30;;
59770;SDS011;45649;53.014;6.600;2023-01-05T11:42:53;6.90;;;2.20;;
59770;SDS011;45649;53.014;6.600;2023-01-05T11:45:20;13.67;;;3.03;;
59770;SDS011;45649;53.014;6.600;2023-01-05T11:47:48;10.27;;;2.90;;
59770;SDS011;45649;53.014;6.600;2023-01-05T11:50:16;11.13;;;3.10;;
59770;SDS011;45649;53.014;6.600;2023-01-05T11:52:48;13.53;;;2.97;;
59770;SDS011;45649;53.014;6.600;2023-01-05T11:55:31;11.70;;;3.43;;
59770;SDS011;45649;53.014;6.600;2023-01-05T11:58:09;13.23;;;3.20;;
59770;SDS011;45649;53.014;6.600;2023-01-05T12:01:27;13.07;;;3.47;;
59770;SDS011;45649;53.014;6.600;2023-01-05T12:06:11;10.10;;;3.30;;
59770;SDS011;45649;53.014;6.600;2023-01-05T12:08:55;13.63;;;4.00;;
59770;SDS011;45649;53.014;6.600;2023-01-05T12:11:23;15.13;;;3.40;;
59770;SDS011;45649;53.014;6.600;2023-01-05T12:27:00;14.90;;;3.83;;
59770;SDS011;45649;53.014;6.600;2023-01-05T12:32:06;15.80;;;3.40;;
59770;SDS011;45649;53.014;6.600;2023-01-05T12:50:21;12.67;;;3.43;;
59770;SDS011;45649;53.014;6.600;2023-01-05T12:52:49;15.43;;;3.80;;
59770;SDS011;45649;53.014;6.600;2023-01-05T12:55:19;13.23;;;3.70;;
59770;SDS011;45649;53.014;6.600;2023-01-05T12:57:47;13.20;;;3.80;;
59770;SDS011;45649;53.014;6.600;2023-01-05T13:00:14;15.53;;;4.07;;
59770;SDS011;45649;53.014;6.600;2023-01-05T13:02:43;12.17;;;4.13;;
59770;SDS011;45649;53.014;6.600;2023-01-05T13:13:16;12.40;;;3.67;;
59770;SDS011;45649;53.014;6.600;2023-01-05T13:18:16;16.47;;;4.23;;
59770;SDS011;45649;53.014;6.600;2023-01-05T13:21:04;10.43;;;3.30;;
59770;SDS011;45649;53.014;6.600;2023-01-05T13:23:30;14.73;;;4.03;;
59770;SDS011;45649;53.014;6.600;2023-01-05T13:25:58;18.97;;;4.33;;
59770;SDS011;45649;53.014;6.600;2023-01-05T13:28:25;14.80;;;4.03;;
59770;SDS011;45649;53.014;6.600;2023-01-05T13:39:05;19.30;;;4.57;;
59770;SDS011;45649;53.014;6.600;2023-01-05T13:51:36;21.00;;;5.03;;
59770;SDS011;45649;53.014;6.600;2023-01-05T13:54:09;24.70;;;6.17;;
59770;SDS011;45649;53.014;6.600;2023-01-05T13:56:37;25.70;;;5.30;;
59770;SDS011;45649;53.014;6.600;2023-01-05T14:01:34;19.50;;;4.80;;
59770;SDS011;45649;53.014;6.600;2023-01-05T14:04:02;14.73;;;4.60;;
59770;SDS011;45649;53.014;6.600;2023-01-05T14:06:30;18.90;;;4.57;;
59770;SDS011;45649;53.014;6.600;2023-01-05T14:09:01;17.43;;;4.63;;
59770;SDS011;45649;53.014;6.600;2023-01-05T14:11:29;25.47;;;6.97;;
59770;SDS011;45649;53.014;6.600;2023-01-05T14:13:56;19.60;;;5.87;;
59770;SDS011;45649;53.014;6.600;2023-01-05T14:27:10;23.43;;;5.20;;
59770;SDS011;45649;53.014;6.600;2023-01-05T14:32:21;21.00;;;5.03;;
59770;SDS011;45649;53.014;6.600;2023-01-05T14:34:53;19.97;;;4.60;;
59770;SDS011;45649;53.014;6.600;2023-01-05T14:37:26;17.77;;;4.70;;
59770;SDS011;45649;53.014;6.600;2023-01-05T14:39:53;13.90;;;4.80;;
59770;SDS011;45649;53.014;6.600;2023-01-05T14:42:23;16.90;;;4.40;;
59770;SDS011;45649;53.014;6.600;2023-01-05T14:44:59;20.67;;;4.80;;
59770;SDS011;45649;53.014;6.600;2023-01-05T14:47:33;16.37;;;3.80;;
59770;SDS011;45649;53.014;6.600;2023-01-05T14:50:00;24.47;;;6.70;;
59770;SDS011;45649;53.014;6.600;2023-01-05T14:55:18;21.50;;;4.77;;
59770;SDS011;45649;53.014;6.600;2023-01-05T14:57:49;15.57;;;4.57;;
59770;SDS011;45649;53.014;6.600;2023-01-05T15:00:17;19.27;;;5.07;;
59770;SDS011;45649;53.014;6.600;2023-01-05T15:05:28;16.63;;;5.10;;
59770;SDS011;45649;53.014;6.600;2023-01-05T15:15:40;20.10;;;5.40;;
59770;SDS011;45649;53.014;6.600;2023-01-05T15:20:59;21.80;;;6.90;;
59770;SDS011;45649;53.014;6.600;2023-01-05T15:28:49;20.20;;;5.57;;
59770;SDS011;45649;53.014;6.600;2023-01-05T15:31:34;18.87;;;5.73;;
59770;SDS011;45649;53.014;6.600;2023-01-05T15:37:11;21.40;;;4.97;;
59770;SDS011;45649;53.014;6.600;2023-01-05T15:39:30;19.73;;;4.93;;
59770;SDS011;45649;53.014;6.600;2023-01-05T15:41:57;16.70;;;4.60;;
59770;SDS011;45649;53.014;6.600;2023-01-05T15:44:25;16.50;;;4.70;;
59770;SDS011;45649;53.014;6.600;2023-01-05T15:46:54;20.67;;;5.30;;
59770;SDS011;45649;53.014;6.600;2023-01-05T15:49:24;28.70;;;4.90;;
59770;SDS011;45649;53.014;6.600;2023-01-05T15:51:52;21.00;;;5.70;;
59770;SDS011;45649;53.014;6.600;2023-01-05T15:54:20;19.40;;;5.07;;
59770;SDS011;45649;53.014;6.600;2023-01-05T15:56:47;23.07;;;5.40;;
59770;SDS011;45649;53.014;6.600;2023-01-05T16:01:49;18.13;;;4.90;;
59770;SDS011;45649;53.014;6.600;2023-01-05T16:04:15;17.17;;;4.40;;
59770;SDS011;45649;53.014;6.600;2023-01-05T16:06:45;26.73;;;5.57;;
59770;SDS011;45649;53.014;6.600;2023-01-05T16:09:19;22.53;;;4.60;;
59770;SDS011;45649;53.014;6.600;2023-01-05T16:11:47;24.23;;;5.03;;
59770;SDS011;45649;53.014;6.600;2023-01-05T16:14:18;19.30;;;4.72;;
59770;SDS011;45649;53.014;6.600;2023-01-05T16:16:53;18.07;;;4.97;;
59770;SDS011;45649;53.014;6.600;2023-01-05T16:19:27;21.33;;;5.03;;
59770;SDS011;45649;53.014;6.600;2023-01-05T16:21:58;20.10;;;5.00;;
59770;SDS011;45649;53.014;6.600;2023-01-05T16:26:57;25.50;;;5.40;;
59770;SDS011;45649;53.014;6.600;2023-01-05T16:29:30;21.27;;;5.80;;
59770;SDS011;45649;53.014;6.600;2023-01-05T16:31:57;17.30;;;5.60;;
59770;SDS011;45649;53.014;6.600;2023-01-05T16:34:24;23.27;;;6.20;;
59770;SDS011;45649;53.014;6.600;2023-01-05T16:37:03;21.57;;;5.50;;
59770;SDS011;45649;53.014;6.600;2023-01-05T16:39:38;22.03;;;5.53;;
59770;SDS011;45649;53.014;6.600;2023-01-05T16:42:20;22.93;;;5.63;;
59770;SDS011;45649;53.014;6.600;2023-01-05T16:44:55;21.90;;;5.80;;
59770;SDS011;45649;53.014;6.600;2023-01-05T16:47:31;23.83;;;5.47;;
59770;SDS011;45649;53.014;6.600;2023-01-05T16:49:57;19.30;;;5.10;;
59770;SDS011;45649;53.014;6.600;2023-01-05T16:52:23;23.93;;;5.83;;
59770;SDS011;45649;53.014;6.600;2023-01-05T16:55:12;20.47;;;5.23;;
59770;SDS011;45649;53.014;6.600;2023-01-05T16:57:39;22.83;;;5.67;;
59770;SDS011;45649;53.014;6.600;2023-01-05T17:02:51;24.83;;;6.00;;
59770;SDS011;45649;53.014;6.600;2023-01-05T17:05:22;30.90;;;8.73;;
59770;SDS011;45649;53.014;6.600;2023-01-05T17:07:50;28.07;;;7.40;;
59770;SDS011;45649;53.014;6.600;2023-01-05T17:10:19;30.40;;;7.30;;
59770;SDS011;45649;53.014;6.600;2023-01-05T17:12:48;25.43;;;6.30;;
59770;SDS011;45649;53.014;6.600;2023-01-05T17:15:17;29.93;;;7.13;;
59770;SDS011;45649;53.014;6.600;2023-01-05T17:17:43;24.73;;;6.50;;
59770;SDS011;45649;53.014;6.600;2023-01-05T17:20:10;28.37;;;6.87;;
59770;SDS011;45649;53.014;6.600;2023-01-05T17:22:37;25.10;;;5.77;;